Terminal Aerodrome Forecast
Issued by NWS St Louis, MO

Home | Current Version | Previous Version | Text Only | Print | Product List | Glossary On
Versions: 1 2 3 4 5 6 7 8 9 10 11 12 13 14 15 16 17 18 19 20 21 22 23 24 25
335
FTUS43 KLSX 161122
TAFCOU
TAF
KCOU 161122Z 1612/1712 14005KT 6SM -SHRA OVC040
      TEMPO 1612/1614 4SM -SHRA BKN025
     FM161400 17006KT P6SM VCSH BKN060
     FM161800 19010KT P6SM VCTS BKN060CB
     FM162200 19010KT P6SM BKN045
     FM170200 19009KT 5SM -TSRA BKN040CB
     FM170500 19008KT P6SM OVC040=

USA.gov is the U.S. government's official web portal to all federal, state and local government web resources and services.